sensor_id;sensor_type;location;lat;lon;timestamp;P1;durP1;ratioP1;P2;durP2;ratioP2
80576;SDS011;69937;52.420;10.538;2024-03-25T00:04:29;5.35;;;4.97;;
80576;SDS011;69937;52.420;10.538;2024-03-25T00:09:30;8.60;;;5.03;;
80576;SDS011;69937;52.420;10.538;2024-03-25T00:14:31;5.45;;;4.90;;
80576;SDS011;69937;52.420;10.538;2024-03-25T00:19:32;4.80;;;4.53;;
80576;SDS011;69937;52.420;10.538;2024-03-25T00:24:32;5.03;;;4.70;;
80576;SDS011;69937;52.420;10.538;2024-03-25T00:29:33;6.53;;;5.68;;
80576;SDS011;69937;52.420;10.538;2024-03-25T00:34:34;5.97;;;5.57;;
80576;SDS011;69937;52.420;10.538;2024-03-25T00:39:34;6.90;;;5.72;;
80576;SDS011;69937;52.420;10.538;2024-03-25T00:44:35;5.13;;;4.80;;
80576;SDS011;69937;52.420;10.538;2024-03-25T00:49:36;5.25;;;4.85;;
80576;SDS011;69937;52.420;10.538;2024-03-25T00:54:36;4.75;;;4.45;;
80576;SDS011;69937;52.420;10.538;2024-03-25T00:59:37;5.85;;;5.30;;
80576;SDS011;69937;52.420;10.538;2024-03-25T01:04:37;6.07;;;5.68;;
80576;SDS011;69937;52.420;10.538;2024-03-25T01:09:38;4.80;;;4.50;;
80576;SDS011;69937;52.420;10.538;2024-03-25T01:14:39;7.18;;;6.45;;
80576;SDS011;69937;52.420;10.538;2024-03-25T01:19:39;9.02;;;5.05;;
80576;SDS011;69937;52.420;10.538;2024-03-25T01:24:40;6.05;;;5.57;;
80576;SDS011;69937;52.420;10.538;2024-03-25T01:29:40;5.63;;;5.03;;
80576;SDS011;69937;52.420;10.538;2024-03-25T01:34:41;5.35;;;5.03;;
80576;SDS011;69937;52.420;10.538;2024-03-25T01:39:41;5.43;;;4.93;;
80576;SDS011;69937;52.420;10.538;2024-03-25T01:44:42;5.93;;;5.53;;
80576;SDS011;69937;52.420;10.538;2024-03-25T01:49:43;6.35;;;5.75;;
80576;SDS011;69937;52.420;10.538;2024-03-25T01:54:43;6.82;;;6.43;;
80576;SDS011;69937;52.420;10.538;2024-03-25T01:59:44;6.25;;;5.65;;
80576;SDS011;69937;52.420;10.538;2024-03-25T02:04:45;5.18;;;4.85;;
80576;SDS011;69937;52.420;10.538;2024-03-25T02:09:45;5.90;;;5.40;;
80576;SDS011;69937;52.420;10.538;2024-03-25T02:14:48;6.78;;;5.80;;
80576;SDS011;69937;52.420;10.538;2024-03-25T02:19:48;5.25;;;4.95;;
80576;SDS011;69937;52.420;10.538;2024-03-25T02:24:52;9.45;;;6.28;;
80576;SDS011;69937;52.420;10.538;2024-03-25T02:29:54;5.47;;;5.07;;
80576;SDS011;69937;52.420;10.538;2024-03-25T02:35:05;6.20;;;5.60;;
80576;SDS011;69937;52.420;10.538;2024-03-25T02:40:08;6.68;;;5.45;;
80576;SDS011;69937;52.420;10.538;2024-03-25T02:45:09;6.00;;;5.53;;
80576;SDS011;69937;52.420;10.538;2024-03-25T02:50:10;4.85;;;4.53;;
80576;SDS011;69937;52.420;10.538;2024-03-25T02:55:11;5.60;;;4.30;;
80576;SDS011;69937;52.420;10.538;2024-03-25T03:00:11;5.10;;;4.72;;
80576;SDS011;69937;52.420;10.538;2024-03-25T03:05:13;5.30;;;4.80;;
80576;SDS011;69937;52.420;10.538;2024-03-25T03:10:13;6.32;;;4.85;;
80576;SDS011;69937;52.420;10.538;2024-03-25T03:15:16;10.10;;;5.50;;
80576;SDS011;69937;52.420;10.538;2024-03-25T03:20:16;6.20;;;5.30;;
80576;SDS011;69937;52.420;10.538;2024-03-25T03:25:17;4.50;;;4.13;;
80576;SDS011;69937;52.420;10.538;2024-03-25T03:30:17;5.68;;;5.18;;
80576;SDS011;69937;52.420;10.538;2024-03-25T03:35:18;5.82;;;5.43;;
80576;SDS011;69937;52.420;10.538;2024-03-25T03:40:18;4.78;;;4.47;;
80576;SDS011;69937;52.420;10.538;2024-03-25T03:45:19;6.00;;;5.30;;
80576;SDS011;69937;52.420;10.538;2024-03-25T03:50:20;6.53;;;5.88;;
80576;SDS011;69937;52.420;10.538;2024-03-25T03:55:20;6.03;;;5.43;;
80576;SDS011;69937;52.420;10.538;2024-03-25T04:00:21;5.72;;;5.20;;
80576;SDS011;69937;52.420;10.538;2024-03-25T04:05:21;7.45;;;5.72;;
80576;SDS011;69937;52.420;10.538;2024-03-25T04:10:22;5.85;;;5.18;;
80576;SDS011;69937;52.420;10.538;2024-03-25T04:15:23;5.10;;;4.70;;
80576;SDS011;69937;52.420;10.538;2024-03-25T04:20:26;7.28;;;5.80;;
80576;SDS011;69937;52.420;10.538;2024-03-25T04:25:28;5.65;;;5.18;;
80576;SDS011;69937;52.420;10.538;2024-03-25T04:30:29;6.85;;;5.13;;
80576;SDS011;69937;52.420;10.538;2024-03-25T04:35:29;6.20;;;5.30;;
80576;SDS011;69937;52.420;10.538;2024-03-25T04:40:30;6.18;;;5.68;;
80576;SDS011;69937;52.420;10.538;2024-03-25T04:45:30;5.32;;;4.78;;
80576;SDS011;69937;52.420;10.538;2024-03-25T04:50:31;6.35;;;5.85;;
80576;SDS011;69937;52.420;10.538;2024-03-25T04:55:31;8.45;;;5.50;;
80576;SDS011;69937;52.420;10.538;2024-03-25T05:00:32;6.97;;;6.10;;
80576;SDS011;69937;52.420;10.538;2024-03-25T05:05:33;5.07;;;4.30;;
80576;SDS011;69937;52.420;10.538;2024-03-25T05:10:33;6.07;;;5.65;;
80576;SDS011;69937;52.420;10.538;2024-03-25T05:15:34;6.72;;;6.15;;
80576;SDS011;69937;52.420;10.538;2024-03-25T05:20:34;6.55;;;5.32;;
80576;SDS011;69937;52.420;10.538;2024-03-25T05:25:35;5.47;;;5.07;;
80576;SDS011;69937;52.420;10.538;2024-03-25T05:30:36;6.13;;;5.45;;
80576;SDS011;69937;52.420;10.538;2024-03-25T05:35:37;5.40;;;4.93;;
80576;SDS011;69937;52.420;10.538;2024-03-25T05:40:37;6.38;;;5.85;;
80576;SDS011;69937;52.420;10.538;2024-03-25T05:45:38;6.60;;;5.97;;
80576;SDS011;69937;52.420;10.538;2024-03-25T05:50:38;6.00;;;5.57;;
80576;SDS011;69937;52.420;10.538;2024-03-25T05:55:39;6.20;;;5.57;;
80576;SDS011;69937;52.420;10.538;2024-03-25T06:00:40;5.75;;;5.25;;
80576;SDS011;69937;52.420;10.538;2024-03-25T06:05:41;6.03;;;5.50;;
80576;SDS011;69937;52.420;10.538;2024-03-25T06:10:42;5.82;;;5.45;;
80576;SDS011;69937;52.420;10.538;2024-03-25T06:15:42;8.68;;;5.97;;
80576;SDS011;69937;52.420;10.538;2024-03-25T06:20:43;6.30;;;4.90;;
80576;SDS011;69937;52.420;10.538;2024-03-25T06:25:44;5.43;;;5.03;;
80576;SDS011;69937;52.420;10.538;2024-03-25T06:30:44;6.20;;;5.70;;
80576;SDS011;69937;52.420;10.538;2024-03-25T06:36:04;4.93;;;4.57;;
80576;SDS011;69937;52.420;10.538;2024-03-25T06:41:05;5.03;;;4.13;;
80576;SDS011;69937;52.420;10.538;2024-03-25T06:46:06;8.02;;;5.40;;
80576;SDS011;69937;52.420;10.538;2024-03-25T06:51:06;7.55;;;4.82;;
80576;SDS011;69937;52.420;10.538;2024-03-25T06:56:07;10.25;;;5.45;;
80576;SDS011;69937;52.420;10.538;2024-03-25T07:01:08;13.93;;;6.07;;
80576;SDS011;69937;52.420;10.538;2024-03-25T07:06:09;9.45;;;5.47;;
80576;SDS011;69937;52.420;10.538;2024-03-25T07:11:10;9.60;;;5.35;;
80576;SDS011;69937;52.420;10.538;2024-03-25T07:16:10;7.03;;;4.72;;
80576;SDS011;69937;52.420;10.538;2024-03-25T07:21:11;9.02;;;4.82;;
80576;SDS011;69937;52.420;10.538;2024-03-25T07:26:11;6.22;;;5.70;;
80576;SDS011;69937;52.420;10.538;2024-03-25T07:31:12;8.57;;;5.80;;
80576;SDS011;69937;52.420;10.538;2024-03-25T07:36:12;11.27;;;4.95;;
80576;SDS011;69937;52.420;10.538;2024-03-25T07:41:13;6.78;;;5.68;;
80576;SDS011;69937;52.420;10.538;2024-03-25T07:46:13;5.13;;;4.68;;
80576;SDS011;69937;52.420;10.538;2024-03-25T07:51:14;7.97;;;4.82;;
80576;SDS011;69937;52.420;10.538;2024-03-25T07:56:15;5.00;;;4.43;;
80576;SDS011;69937;52.420;10.538;2024-03-25T08:01:15;7.03;;;4.18;;
80576;SDS011;69937;52.420;10.538;2024-03-25T08:06:16;6.00;;;4.65;;
80576;SDS011;69937;52.420;10.538;2024-03-25T08:11:16;9.52;;;5.35;;
80576;SDS011;69937;52.420;10.538;2024-03-25T08:16:17;9.68;;;4.75;;
80576;SDS011;69937;52.420;10.538;2024-03-25T08:21:19;5.75;;;3.60;;
80576;SDS011;69937;52.420;10.538;2024-03-25T08:26:20;7.68;;;4.05;;
80576;SDS011;69937;52.420;10.538;2024-03-25T08:31:21;8.38;;;3.55;;
80576;SDS011;69937;52.420;10.538;2024-03-25T08:36:21;7.60;;;3.63;;
80576;SDS011;69937;52.420;10.538;2024-03-25T08:41:22;8.90;;;4.35;;
80576;SDS011;69937;52.420;10.538;2024-03-25T08:46:22;6.97;;;3.83;;
80576;SDS011;69937;52.420;10.538;2024-03-25T08:51:23;13.80;;;3.38;;
80576;SDS011;69937;52.420;10.538;2024-03-25T08:56:23;9.90;;;3.85;;
80576;SDS011;69937;52.420;10.538;2024-03-25T09:01:24;14.32;;;5.47;;
80576;SDS011;69937;52.420;10.538;2024-03-25T09:06:27;3.63;;;2.88;;
80576;SDS011;69937;52.420;10.538;2024-03-25T09:11:27;6.55;;;3.45;;
80576;SDS011;69937;52.420;10.538;2024-03-25T09:16:28;5.15;;;3.13;;
80576;SDS011;69937;52.420;10.538;2024-03-25T09:21:29;13.50;;;4.13;;
80576;SDS011;69937;52.420;10.538;2024-03-25T09:26:29;5.88;;;3.45;;
80576;SDS011;69937;52.420;10.538;2024-03-25T09:31:30;11.35;;;3.92;;
80576;SDS011;69937;52.420;10.538;2024-03-25T09:36:31;7.60;;;3.38;;
80576;SDS011;69937;52.420;10.538;2024-03-25T09:41:31;10.07;;;3.17;;
80576;SDS011;69937;52.420;10.538;2024-03-25T09:46:36;7.68;;;3.33;;
80576;SDS011;69937;52.420;10.538;2024-03-25T09:51:37;4.88;;;2.97;;
80576;SDS011;69937;52.420;10.538;2024-03-25T09:56:38;6.55;;;2.50;;
80576;SDS011;69937;52.420;10.538;2024-03-25T10:01:39;3.78;;;2.05;;
80576;SDS011;69937;52.420;10.538;2024-03-25T10:06:39;7.65;;;2.50;;
80576;SDS011;69937;52.420;10.538;2024-03-25T10:11:40;4.38;;;2.30;;
80576;SDS011;69937;52.420;10.538;2024-03-25T10:16:41;8.38;;;2.58;;
80576;SDS011;69937;52.420;10.538;2024-03-25T10:21:42;4.93;;;2.38;;
80576;SDS011;69937;52.420;10.538;2024-03-25T10:26:42;6.35;;;2.25;;
80576;SDS011;69937;52.420;10.538;2024-03-25T10:31:43;3.17;;;2.00;;
80576;SDS011;69937;52.420;10.538;2024-03-25T10:36:43;3.75;;;2.20;;
80576;SDS011;69937;52.420;10.538;2024-03-25T10:41:44;5.40;;;2.30;;
80576;SDS011;69937;52.420;10.538;2024-03-25T10:46:46;3.13;;;2.40;;
80576;SDS011;69937;52.420;10.538;2024-03-25T10:51:46;6.70;;;2.58;;
80576;SDS011;69937;52.420;10.538;2024-03-25T10:56:49;6.85;;;2.47;;
80576;SDS011;69937;52.420;10.538;2024-03-25T11:01:51;4.40;;;2.33;;
80576;SDS011;69937;52.420;10.538;2024-03-25T11:06:52;5.63;;;2.95;;
80576;SDS011;69937;52.420;10.538;2024-03-25T11:11:53;5.47;;;1.67;;
80576;SDS011;69937;52.420;10.538;2024-03-25T11:16:56;6.78;;;2.13;;
80576;SDS011;69937;52.420;10.538;2024-03-25T11:22:07;4.43;;;2.03;;
80576;SDS011;69937;52.420;10.538;2024-03-25T11:27:10;4.70;;;1.85;;
80576;SDS011;69937;52.420;10.538;2024-03-25T11:32:10;3.80;;;1.98;;
80576;SDS011;69937;52.420;10.538;2024-03-25T11:37:11;3.70;;;2.78;;
80576;SDS011;69937;52.420;10.538;2024-03-25T11:42:12;6.72;;;2.17;;
80576;SDS011;69937;52.420;10.538;2024-03-25T11:47:13;4.53;;;2.15;;
80576;SDS011;69937;52.420;10.538;2024-03-25T11:52:14;3.83;;;1.77;;
80576;SDS011;69937;52.420;10.538;2024-03-25T11:57:16;5.55;;;2.35;;
80576;SDS011;69937;52.420;10.538;2024-03-25T12:02:17;4.82;;;2.50;;
80576;SDS011;69937;52.420;10.538;2024-03-25T12:07:18;3.00;;;2.42;;
80576;SDS011;69937;52.420;10.538;2024-03-25T12:12:18;5.57;;;2.95;;
80576;SDS011;69937;52.420;10.538;2024-03-25T12:17:19;5.75;;;2.63;;
80576;SDS011;69937;52.420;10.538;2024-03-25T12:22:20;4.72;;;1.50;;
80576;SDS011;69937;52.420;10.538;2024-03-25T12:27:21;5.95;;;2.60;;
80576;SDS011;69937;52.420;10.538;2024-03-25T12:32:21;5.20;;;1.92;;
80576;SDS011;69937;52.420;10.538;2024-03-25T12:37:30;3.13;;;1.35;;
80576;SDS011;69937;52.420;10.538;2024-03-25T12:42:31;5.72;;;1.50;;
80576;SDS011;69937;52.420;10.538;2024-03-25T12:47:32;4.22;;;1.40;;
80576;SDS011;69937;52.420;10.538;2024-03-25T12:52:34;3.15;;;1.60;;
80576;SDS011;69937;52.420;10.538;2024-03-25T12:57:34;5.22;;;1.55;;
80576;SDS011;69937;52.420;10.538;2024-03-25T13:02:35;6.55;;;1.80;;
80576;SDS011;69937;52.420;10.538;2024-03-25T13:07:36;3.47;;;1.50;;
80576;SDS011;69937;52.420;10.538;2024-03-25T13:12:36;4.07;;;1.73;;
80576;SDS011;69937;52.420;10.538;2024-03-25T13:17:37;6.10;;;1.67;;
80576;SDS011;69937;52.420;10.538;2024-03-25T13:22:38;2.55;;;1.23;;
80576;SDS011;69937;52.420;10.538;2024-03-25T13:27:38;4.45;;;1.70;;
80576;SDS011;69937;52.420;10.538;2024-03-25T13:32:39;2.38;;;1.67;;
80576;SDS011;69937;52.420;10.538;2024-03-25T13:37:40;3.17;;;1.75;;
80576;SDS011;69937;52.420;10.538;2024-03-25T13:42:40;5.13;;;1.70;;
80576;SDS011;69937;52.420;10.538;2024-03-25T13:47:41;4.70;;;1.67;;
80576;SDS011;69937;52.420;10.538;2024-03-25T13:52:41;3.65;;;1.60;;
80576;SDS011;69937;52.420;10.538;2024-03-25T13:57:42;2.08;;;1.42;;
80576;SDS011;69937;52.420;10.538;2024-03-25T14:02:44;7.72;;;2.00;;
80576;SDS011;69937;52.420;10.538;2024-03-25T14:07:45;7.32;;;1.70;;
80576;SDS011;69937;52.420;10.538;2024-03-25T14:12:45;3.53;;;1.63;;
80576;SDS011;69937;52.420;10.538;2024-03-25T14:17:46;4.35;;;1.48;;
80576;SDS011;69937;52.420;10.538;2024-03-25T14:22:46;5.07;;;1.65;;
80576;SDS011;69937;52.420;10.538;2024-03-25T14:27:47;5.22;;;1.48;;
80576;SDS011;69937;52.420;10.538;2024-03-25T14:32:48;7.60;;;1.50;;
80576;SDS011;69937;52.420;10.538;2024-03-25T14:37:49;6.47;;;1.25;;
80576;SDS011;69937;52.420;10.538;2024-03-25T14:42:49;3.38;;;1.00;;
80576;SDS011;69937;52.420;10.538;2024-03-25T14:47:50;3.15;;;1.17;;
80576;SDS011;69937;52.420;10.538;2024-03-25T14:52:50;3.75;;;1.00;;
80576;SDS011;69937;52.420;10.538;2024-03-25T14:57:51;9.32;;;3.17;;
80576;SDS011;69937;52.420;10.538;2024-03-25T15:02:52;6.38;;;1.17;;
80576;SDS011;69937;52.420;10.538;2024-03-25T15:07:52;6.65;;;1.63;;
80576;SDS011;69937;52.420;10.538;2024-03-25T15:12:53;7.32;;;1.15;;
80576;SDS011;69937;52.420;10.538;2024-03-25T15:17:54;3.92;;;1.10;;
80576;SDS011;69937;52.420;10.538;2024-03-25T15:22:54;6.25;;;1.60;;
80576;SDS011;69937;52.420;10.538;2024-03-25T15:27:55;4.75;;;0.82;;
80576;SDS011;69937;52.420;10.538;2024-03-25T15:32:56;5.68;;;1.50;;
80576;SDS011;69937;52.420;10.538;2024-03-25T15:37:56;3.15;;;1.17;;
80576;SDS011;69937;52.420;10.538;2024-03-25T15:42:58;4.65;;;1.42;;
80576;SDS011;69937;52.420;10.538;2024-03-25T15:48:01;7.28;;;0.80;;
80576;SDS011;69937;52.420;10.538;2024-03-25T15:53:03;6.90;;;1.73;;
80576;SDS011;69937;52.420;10.538;2024-03-25T15:58:04;6.00;;;1.80;;
80576;SDS011;69937;52.420;10.538;2024-03-25T16:03:04;5.25;;;1.08;;
80576;SDS011;69937;52.420;10.538;2024-03-25T16:08:05;5.78;;;1.75;;
80576;SDS011;69937;52.420;10.538;2024-03-25T16:13:06;3.95;;;1.10;;
80576;SDS011;69937;52.420;10.538;2024-03-25T16:18:07;3.67;;;1.08;;
80576;SDS011;69937;52.420;10.538;2024-03-25T16:23:08;5.15;;;1.83;;
80576;SDS011;69937;52.420;10.538;2024-03-25T16:28:08;4.75;;;1.42;;
80576;SDS011;69937;52.420;10.538;2024-03-25T16:33:09;3.15;;;1.27;;
80576;SDS011;69937;52.420;10.538;2024-03-25T16:38:09;5.65;;;1.60;;
80576;SDS011;69937;52.420;10.538;2024-03-25T16:43:10;6.40;;;1.90;;
80576;SDS011;69937;52.420;10.538;2024-03-25T16:48:11;2.22;;;1.48;;
80576;SDS011;69937;52.420;10.538;2024-03-25T16:53:11;4.10;;;1.73;;
80576;SDS011;69937;52.420;10.538;2024-03-25T16:58:13;4.95;;;1.67;;
80576;SDS011;69937;52.420;10.538;2024-03-25T17:03:14;4.90;;;2.30;;
80576;SDS011;69937;52.420;10.538;2024-03-25T17:08:14;6.28;;;2.25;;
80576;SDS011;69937;52.420;10.538;2024-03-25T17:13:15;4.72;;;2.92;;
80576;SDS011;69937;52.420;10.538;2024-03-25T17:18:16;4.65;;;2.15;;
80576;SDS011;69937;52.420;10.538;2024-03-25T17:23:17;9.35;;;2.75;;
80576;SDS011;69937;52.420;10.538;2024-03-25T17:28:17;4.97;;;2.33;;
80576;SDS011;69937;52.420;10.538;2024-03-25T17:33:18;6.25;;;2.55;;
80576;SDS011;69937;52.420;10.538;2024-03-25T17:38:19;4.38;;;2.35;;
80576;SDS011;69937;52.420;10.538;2024-03-25T17:43:20;5.80;;;2.90;;
80576;SDS011;69937;52.420;10.538;2024-03-25T17:48:20;5.28;;;2.25;;
80576;SDS011;69937;52.420;10.538;2024-03-25T17:53:21;6.47;;;2.40;;
80576;SDS011;69937;52.420;10.538;2024-03-25T17:58:22;3.50;;;2.13;;
80576;SDS011;69937;52.420;10.538;2024-03-25T18:03:23;9.80;;;2.83;;
80576;SDS011;69937;52.420;10.538;2024-03-25T18:08:23;3.42;;;2.83;;
80576;SDS011;69937;52.420;10.538;2024-03-25T18:13:24;4.82;;;2.85;;
80576;SDS011;69937;52.420;10.538;2024-03-25T18:18:24;4.05;;;3.20;;
80576;SDS011;69937;52.420;10.538;2024-03-25T18:23:25;3.97;;;3.17;;
80576;SDS011;69937;52.420;10.538;2024-03-25T18:28:26;4.43;;;3.47;;
80576;SDS011;69937;52.420;10.538;2024-03-25T18:33:26;3.35;;;2.78;;
80576;SDS011;69937;52.420;10.538;2024-03-25T18:38:27;5.35;;;4.00;;
80576;SDS011;69937;52.420;10.538;2024-03-25T18:43:28;11.68;;;4.80;;
80576;SDS011;69937;52.420;10.538;2024-03-25T18:48:28;9.50;;;4.45;;
80576;SDS011;69937;52.420;10.538;2024-03-25T18:53:29;9.35;;;4.90;;
80576;SDS011;69937;52.420;10.538;2024-03-25T18:58:29;6.65;;;3.75;;
80576;SDS011;69937;52.420;10.538;2024-03-25T19:03:30;9.50;;;4.72;;
80576;SDS011;69937;52.420;10.538;2024-03-25T19:08:30;5.32;;;4.47;;
80576;SDS011;69937;52.420;10.538;2024-03-25T19:13:32;9.30;;;4.78;;
80576;SDS011;69937;52.420;10.538;2024-03-25T19:18:33;5.32;;;4.82;;
80576;SDS011;69937;52.420;10.538;2024-03-25T19:23:33;5.00;;;4.50;;
80576;SDS011;69937;52.420;10.538;2024-03-25T19:28:34;9.63;;;4.80;;
80576;SDS011;69937;52.420;10.538;2024-03-25T19:33:34;10.65;;;4.82;;
80576;SDS011;69937;52.420;10.538;2024-03-25T19:38:35;6.28;;;4.70;;
80576;SDS011;69937;52.420;10.538;2024-03-25T19:43:36;5.57;;;5.05;;
80576;SDS011;69937;52.420;10.538;2024-03-25T19:48:36;5.90;;;5.40;;
80576;SDS011;69937;52.420;10.538;2024-03-25T19:53:38;5.68;;;5.13;;
80576;SDS011;69937;52.420;10.538;2024-03-25T19:58:38;8.55;;;5.43;;
80576;SDS011;69937;52.420;10.538;2024-03-25T20:03:39;6.30;;;4.97;;
80576;SDS011;69937;52.420;10.538;2024-03-25T20:08:39;6.65;;;6.00;;
80576;SDS011;69937;52.420;10.538;2024-03-25T20:13:40;6.32;;;5.72;;
80576;SDS011;69937;52.420;10.538;2024-03-25T20:18:41;5.28;;;4.80;;
80576;SDS011;69937;52.420;10.538;2024-03-25T20:23:41;6.95;;;5.40;;
80576;SDS011;69937;52.420;10.538;2024-03-25T20:28:42;5.65;;;5.15;;
80576;SDS011;69937;52.420;10.538;2024-03-25T20:33:42;5.60;;;5.07;;
80576;SDS011;69937;52.420;10.538;2024-03-25T20:38:43;5.80;;;5.40;;
80576;SDS011;69937;52.420;10.538;2024-03-25T20:43:44;11.02;;;5.45;;
80576;SDS011;69937;52.420;10.538;2024-03-25T20:48:46;6.03;;;5.50;;
80576;SDS011;69937;52.420;10.538;2024-03-25T20:53:46;6.85;;;6.15;;
80576;SDS011;69937;52.420;10.538;2024-03-25T20:58:47;7.20;;;6.50;;
80576;SDS011;69937;52.420;10.538;2024-03-25T21:03:48;6.40;;;5.82;;
80576;SDS011;69937;52.420;10.538;2024-03-25T21:08:49;6.30;;;5.80;;
80576;SDS011;69937;52.420;10.538;2024-03-25T21:13:50;8.73;;;5.35;;
80576;SDS011;69937;52.420;10.538;2024-03-25T21:18:50;6.85;;;6.07;;
80576;SDS011;69937;52.420;10.538;2024-03-25T21:23:51;6.40;;;5.85;;
80576;SDS011;69937;52.420;10.538;2024-03-25T21:28:51;6.15;;;4.78;;
80576;SDS011;69937;52.420;10.538;2024-03-25T21:33:52;9.70;;;6.20;;
80576;SDS011;69937;52.420;10.538;2024-03-25T21:38:52;12.27;;;6.50;;
80576;SDS011;69937;52.420;10.538;2024-03-25T21:43:53;6.90;;;6.28;;
80576;SDS011;69937;52.420;10.538;2024-03-25T21:48:54;6.60;;;6.03;;
80576;SDS011;69937;52.420;10.538;2024-03-25T21:53:54;6.85;;;6.07;;
80576;SDS011;69937;52.420;10.538;2024-03-25T21:58:55;5.70;;;5.20;;
80576;SDS011;69937;52.420;10.538;2024-03-25T22:03:55;9.93;;;6.38;;
80576;SDS011;69937;52.420;10.538;2024-03-25T22:08:56;8.13;;;7.15;;
80576;SDS011;69937;52.420;10.538;2024-03-25T22:13:56;12.70;;;5.80;;
80576;SDS011;69937;52.420;10.538;2024-03-25T22:18:57;7.28;;;6.45;;
80576;SDS011;69937;52.420;10.538;2024-03-25T22:23:58;7.22;;;6.75;;
80576;SDS011;69937;52.420;10.538;2024-03-25T22:28:58;7.30;;;6.80;;
80576;SDS011;69937;52.420;10.538;2024-03-25T22:34:02;6.75;;;6.15;;
80576;SDS011;69937;52.420;10.538;2024-03-25T22:39:03;6.63;;;6.03;;
80576;SDS011;69937;52.420;10.538;2024-03-25T22:44:04;7.45;;;6.90;;
80576;SDS011;69937;52.420;10.538;2024-03-25T22:49:04;8.82;;;6.93;;
80576;SDS011;69937;52.420;10.538;2024-03-25T22:54:05;12.50;;;6.28;;
80576;SDS011;69937;52.420;10.538;2024-03-25T22:59:06;7.55;;;7.00;;
80576;SDS011;69937;52.420;10.538;2024-03-25T23:04:06;7.13;;;6.43;;
80576;SDS011;69937;52.420;10.538;2024-03-25T23:09:07;9.30;;;6.78;;
80576;SDS011;69937;52.420;10.538;2024-03-25T23:14:08;6.82;;;6.40;;
80576;SDS011;69937;52.420;10.538;2024-03-25T23:19:08;7.70;;;7.20;;
80576;SDS011;69937;52.420;10.538;2024-03-25T23:24:10;7.05;;;6.43;;
80576;SDS011;69937;52.420;10.538;2024-03-25T23:29:11;11.20;;;6.80;;
80576;SDS011;69937;52.420;10.538;2024-03-25T23:34:12;7.40;;;6.90;;
80576;SDS011;69937;52.420;10.538;2024-03-25T23:39:13;7.93;;;7.38;;
80576;SDS011;69937;52.420;10.538;2024-03-25T23:44:14;8.07;;;7.45;;
80576;SDS011;69937;52.420;10.538;2024-03-25T23:49:18;8.77;;;7.60;;
80576;SDS011;69937;52.420;10.538;2024-03-25T23:54:18;8.90;;;7.72;;
80576;SDS011;69937;52.420;10.538;2024-03-25T23:59:19;7.38;;;6.88;;
